createdAt,value
2018-09-20T00:00:30.506Z,11.50
2018-09-20T00:02:59.297Z,12.23
2018-09-20T00:05:28.106Z,11.60
2018-09-20T00:07:57.332Z,12.13
2018-09-20T00:10:26.171Z,13.13
2018-09-20T00:12:54.979Z,12.73
2018-09-20T00:15:23.811Z,12.07
2018-09-20T00:17:52.629Z,11.33
2018-09-20T00:20:21.491Z,11.73
2018-09-20T00:22:50.350Z,11.60
2018-09-20T00:25:19.162Z,10.13
2018-09-20T00:27:47.961Z,10.53
2018-09-20T00:30:17.134Z,10.77
2018-09-20T00:32:45.921Z,9.70
2018-09-20T00:35:14.718Z,9.00
2018-09-20T00:37:43.512Z,8.80
2018-09-20T00:40:12.314Z,9.40
2018-09-20T00:42:41.102Z,9.77
2018-09-20T00:45:09.944Z,9.87
2018-09-20T00:47:38.728Z,8.97
2018-09-20T00:50:09.142Z,8.87
2018-09-20T00:52:38.258Z,8.70
2018-09-20T00:55:08.725Z,8.58
2018-09-20T00:57:37.539Z,8.77
2018-09-20T01:00:08.201Z,8.38
2018-09-20T01:02:37.931Z,9.10
2018-09-20T01:05:07.929Z,9.90
2018-09-20T01:07:36.727Z,8.77
2018-09-20T01:10:05.604Z,9.00
2018-09-20T01:12:34.396Z,8.73
2018-09-20T01:15:03.587Z,8.97
2018-09-20T01:17:32.414Z,8.93
2018-09-20T01:20:01.211Z,8.83
2018-09-20T01:22:30.026Z,8.90
2018-09-20T01:24:58.838Z,9.27
2018-09-20T01:27:27.680Z,8.60
2018-09-20T01:29:56.496Z,8.17
2018-09-20T01:32:25.306Z,8.47
2018-09-20T01:34:54.094Z,8.70
2018-09-20T01:37:23.222Z,9.13
2018-09-20T01:39:52.047Z,8.47
2018-09-20T01:42:20.882Z,8.25
2018-09-20T01:44:49.748Z,8.90
2018-09-20T01:47:18.551Z,7.60
2018-09-20T01:49:47.362Z,6.80
2018-09-20T01:52:16.563Z,7.20
2018-09-20T01:54:45.346Z,6.03
2018-09-20T01:57:14.138Z,7.20
2018-09-20T01:59:43.394Z,7.30
2018-09-20T02:02:12.186Z,6.80
2018-09-20T02:04:41.012Z,7.13
2018-09-20T02:07:41.607Z,7.20
2018-09-20T02:10:10.409Z,6.07
2018-09-20T02:12:39.193Z,6.90
2018-09-20T02:15:09.019Z,6.17
2018-09-20T02:17:37.827Z,6.97
2018-09-20T02:20:08.486Z,7.00
2018-09-20T02:22:37.301Z,6.87
2018-09-20T02:25:06.357Z,6.77
2018-09-20T02:27:35.158Z,6.57
2018-09-20T02:30:03.971Z,6.30
2018-09-20T02:32:32.792Z,6.73
2018-09-20T02:35:01.648Z,6.73
2018-09-20T02:37:30.671Z,6.70
2018-09-20T02:39:59.481Z,6.30
2018-09-20T02:42:28.283Z,6.57
2018-09-20T02:44:57.126Z,6.53
2018-09-20T02:47:25.976Z,6.70
2018-09-20T02:49:54.790Z,6.90
2018-09-20T02:52:24.164Z,6.77
2018-09-20T02:54:52.985Z,9.07
2018-09-20T02:57:21.778Z,6.93
2018-09-20T02:59:50.777Z,7.00
2018-09-20T03:02:19.605Z,6.73
2018-09-20T03:04:48.403Z,5.67
2018-09-20T03:07:17.235Z,6.97
2018-09-20T03:09:46.124Z,7.43
2018-09-20T03:12:14.968Z,8.20
2018-09-20T03:14:43.786Z,6.93
2018-09-20T03:17:12.600Z,7.60
2018-09-20T03:19:41.497Z,7.43
2018-09-20T03:22:10.813Z,6.97
2018-09-20T03:24:39.626Z,7.23
2018-09-20T03:27:08.452Z,7.10
2018-09-20T03:29:37.316Z,7.97
2018-09-20T03:32:06.192Z,7.10
2018-09-20T03:34:35.522Z,7.90
2018-09-20T03:37:04.363Z,7.43
2018-09-20T03:39:33.138Z,7.80
2018-09-20T03:42:01.957Z,8.73
2018-09-20T03:44:31.243Z,8.33
2018-09-20T03:47:00.080Z,7.53
2018-09-20T03:49:28.888Z,7.00
2018-09-20T03:51:57.712Z,7.30
2018-09-20T03:54:27.132Z,8.33
2018-09-20T03:56:55.917Z,8.17
2018-09-20T03:59:24.768Z,7.83
2018-09-20T04:01:53.603Z,7.80
2018-09-20T04:04:22.415Z,6.97
2018-09-20T04:06:51.580Z,7.67
2018-09-20T04:09:20.353Z,7.67
2018-09-20T04:11:49.141Z,7.47
2018-09-20T04:14:17.938Z,7.80
2018-09-20T04:16:46.760Z,8.30
2018-09-20T04:19:15.565Z,7.80
2018-09-20T04:21:44.402Z,8.43
2018-09-20T04:24:13.182Z,8.57
2018-09-20T04:26:41.971Z,8.13
2018-09-20T04:29:11.279Z,7.93
2018-09-20T04:31:40.093Z,8.80
2018-09-20T04:34:08.924Z,8.90
2018-09-20T04:36:37.750Z,8.63
2018-09-20T04:39:09.088Z,9.03
2018-09-20T04:41:37.876Z,8.07
2018-09-20T04:44:06.714Z,8.17
2018-09-20T04:46:35.542Z,8.87
2018-09-20T04:49:04.553Z,9.37
2018-09-20T04:51:33.657Z,8.60
2018-09-20T04:54:02.486Z,8.30
2018-09-20T04:56:31.523Z,8.37
2018-09-20T04:59:00.326Z,8.33
2018-09-20T05:01:29.195Z,8.37
2018-09-20T05:03:58.040Z,8.43
2018-09-20T05:06:26.969Z,8.57
2018-09-20T05:08:55.990Z,9.13
2018-09-20T05:11:24.798Z,8.33
2018-09-20T05:13:54.227Z,8.73
2018-09-20T05:16:23.038Z,9.93
2018-09-20T05:18:51.881Z,8.73
2018-09-20T05:21:20.745Z,9.60
2018-09-20T05:23:49.683Z,8.63
2018-09-20T05:26:18.517Z,8.47
2018-09-20T05:28:47.360Z,9.40
2018-09-20T05:31:16.200Z,10.03
2018-09-20T05:33:45.052Z,9.53
2018-09-20T05:36:14.081Z,9.60
2018-09-20T05:38:42.928Z,8.57
2018-09-20T05:41:11.837Z,10.23
2018-09-20T05:43:40.667Z,9.80
2018-09-20T05:46:09.502Z,9.53
2018-09-20T05:48:38.343Z,10.77
2018-09-20T05:51:07.216Z,10.70
2018-09-20T05:53:36.103Z,9.83
2018-09-20T05:56:04.910Z,9.67
2018-09-20T05:58:34.929Z,10.93
2018-09-20T06:01:03.783Z,10.17
2018-09-20T06:03:32.610Z,9.80
2018-09-20T06:06:01.746Z,10.07
2018-09-20T06:08:30.579Z,10.30
2018-09-20T06:10:59.450Z,10.63
2018-09-20T06:13:28.306Z,12.30
2018-09-20T06:15:57.141Z,11.77
2018-09-20T06:18:26.123Z,10.33
2018-09-20T06:20:55.401Z,10.53
2018-09-20T06:23:24.241Z,10.97
2018-09-20T06:25:53.073Z,11.37
2018-09-20T06:28:22.531Z,11.23
2018-09-20T06:30:51.391Z,11.47
2018-09-20T06:33:20.231Z,10.60
2018-09-20T06:35:49.103Z,10.70
2018-09-20T06:38:17.960Z,11.43
2018-09-20T06:40:46.796Z,11.03
2018-09-20T06:43:16.027Z,11.80
2018-09-20T06:45:44.861Z,12.03
2018-09-20T06:48:13.718Z,11.60
2018-09-20T06:50:42.603Z,11.93
2018-09-20T06:53:11.421Z,11.33
2018-09-20T06:55:40.262Z,12.27
2018-09-20T06:58:09.094Z,11.27
2018-09-20T07:00:38.163Z,11.83
2018-09-20T07:03:07.036Z,11.30
2018-09-20T07:05:36.333Z,13.53
2018-09-20T07:08:05.145Z,12.80
2018-09-20T07:10:33.994Z,11.33
2018-09-20T07:13:02.837Z,12.20
2018-09-20T07:15:31.666Z,13.53
2018-09-20T07:18:00.525Z,13.27
2018-09-20T07:20:29.361Z,10.67
2018-09-20T07:22:58.224Z,10.67
2018-09-20T07:25:27.052Z,11.43
2018-09-20T07:27:56.142Z,9.53
2018-09-20T07:30:24.946Z,10.73
2018-09-20T07:32:53.815Z,10.33
2018-09-20T07:35:22.614Z,10.03
2018-09-20T07:37:51.460Z,11.77
2018-09-20T07:40:20.326Z,11.03
2018-09-20T07:42:49.169Z,10.10
2018-09-20T07:45:18.041Z,11.30
2018-09-20T07:47:46.920Z,10.60
2018-09-20T07:50:15.993Z,9.93
2018-09-20T07:52:44.798Z,9.07
2018-09-20T07:55:13.606Z,9.03
2018-09-20T07:57:42.462Z,9.07
2018-09-20T08:00:11.294Z,8.60
2018-09-20T08:02:40.615Z,8.13
2018-09-20T08:05:09.505Z,7.47
2018-09-20T08:07:38.309Z,8.00
2018-09-20T08:10:08.313Z,6.60
2018-09-20T08:12:37.505Z,6.83
2018-09-20T08:15:07.487Z,6.97
2018-09-20T08:17:36.418Z,5.70
2018-09-20T08:20:05.628Z,6.10
2018-09-20T08:22:34.477Z,6.87
2018-09-20T08:25:03.313Z,7.07
2018-09-20T08:27:32.203Z,6.00
2018-09-20T08:30:01.034Z,6.97
2018-09-20T08:32:29.956Z,6.37
2018-09-20T08:34:59.283Z,5.40
2018-09-20T08:37:28.474Z,5.33
2018-09-20T08:39:57.407Z,5.03
2018-09-20T08:42:26.239Z,4.37
2018-09-20T08:44:55.102Z,4.83
2018-09-20T08:47:23.909Z,4.43
2018-09-20T08:49:52.728Z,4.27
2018-09-20T08:52:21.860Z,4.37
2018-09-20T08:54:50.711Z,4.67
2018-09-20T08:57:20.050Z,3.60
2018-09-20T08:59:48.811Z,6.23
2018-09-20T09:02:17.638Z,5.43
2018-09-20T09:04:46.774Z,5.20
2018-09-20T09:07:15.786Z,5.50
2018-09-20T09:09:44.667Z,5.23
2018-09-20T09:12:13.523Z,5.40
2018-09-20T09:14:42.319Z,4.27
2018-09-20T09:17:11.176Z,3.83
2018-09-20T09:19:40.244Z,4.40
2018-09-20T09:22:09.028Z,5.23
2018-09-20T09:24:37.836Z,5.27
2018-09-20T09:27:06.671Z,7.43
2018-09-20T09:29:35.461Z,4.67
2018-09-20T09:32:04.279Z,4.03
2018-09-20T09:34:33.113Z,8.67
2018-09-20T09:37:01.926Z,5.72
2018-09-20T09:39:30.747Z,4.50
2018-09-20T09:41:59.851Z,5.23
2018-09-20T09:44:28.677Z,4.20
2018-09-20T09:46:57.487Z,4.83
2018-09-20T09:49:26.369Z,4.67
2018-09-20T09:51:55.174Z,4.70
2018-09-20T09:54:27.016Z,4.37
2018-09-20T09:56:55.934Z,4.03
2018-09-20T09:59:24.751Z,3.87
2018-09-20T10:01:53.667Z,5.00
2018-09-20T10:04:22.751Z,4.30
2018-09-20T10:06:52.091Z,4.37
2018-09-20T10:09:20.919Z,4.80
2018-09-20T10:11:55.580Z,4.47
2018-09-20T10:14:24.397Z,3.97
2018-09-20T10:16:53.430Z,4.13
2018-09-20T10:19:22.256Z,4.17
2018-09-20T10:21:51.064Z,4.33
2018-09-20T10:24:19.862Z,4.55
2018-09-20T10:26:49.299Z,4.33
2018-09-20T10:29:18.250Z,3.72
2018-09-20T10:31:47.110Z,4.93
2018-09-20T10:34:15.934Z,4.58
2018-09-20T10:36:44.774Z,4.28
2018-09-20T10:39:14.399Z,4.63
2018-09-20T10:41:43.371Z,4.45
2018-09-20T10:44:12.183Z,4.83
2018-09-20T10:46:41.097Z,4.67
2018-09-20T10:49:10.231Z,4.43
2018-09-20T10:51:39.066Z,3.85
2018-09-20T10:54:07.873Z,5.12
2018-09-20T10:56:36.710Z,4.95
2018-09-20T10:59:05.511Z,4.67
2018-09-20T11:01:34.408Z,3.83
2018-09-20T11:04:03.269Z,5.20
2018-09-20T11:06:32.084Z,4.60
2018-09-20T11:09:01.334Z,6.05
2018-09-20T11:11:30.574Z,5.05
2018-09-20T11:13:59.375Z,4.85
2018-09-20T11:16:28.161Z,4.28
2018-09-20T11:18:56.989Z,4.05
2018-09-20T11:21:25.799Z,4.72
2018-09-20T11:23:54.623Z,3.87
2018-09-20T11:26:23.464Z,5.40
2018-09-20T11:28:52.326Z,4.83
2018-09-20T11:31:21.230Z,4.42
2018-09-20T11:33:50.384Z,4.05
2018-09-20T11:36:19.207Z,6.85
2018-09-20T11:38:48.104Z,4.95
2018-09-20T11:41:17.676Z,5.12
2018-09-20T11:43:46.536Z,8.13
2018-09-20T11:46:15.501Z,5.75
2018-09-20T11:48:44.393Z,5.42
2018-09-20T11:51:13.231Z,4.53
2018-09-20T11:53:42.071Z,5.17
2018-09-20T11:56:11.281Z,5.58
2018-09-20T11:58:40.110Z,4.87
2018-09-20T12:01:09.001Z,4.65
2018-09-20T12:03:37.841Z,4.20
2018-09-20T12:06:06.651Z,5.22
2018-09-20T12:08:35.452Z,5.28
2018-09-20T12:11:04.490Z,4.80
2018-09-20T12:13:33.278Z,5.00
2018-09-20T12:16:02.062Z,5.37
2018-09-20T12:18:31.482Z,5.53
2018-09-20T12:21:00.536Z,6.12
2018-09-20T12:23:29.337Z,5.53
2018-09-20T12:25:58.222Z,5.87
2018-09-20T12:28:27.064Z,6.35
2018-09-20T12:30:55.875Z,5.00
2018-09-20T12:33:24.713Z,5.60
2018-09-20T12:35:53.626Z,5.95
2018-09-20T12:38:22.365Z,5.37
2018-09-20T12:40:51.567Z,5.12
2018-09-20T12:43:20.403Z,5.92
2018-09-20T12:45:49.317Z,5.47
2018-09-20T12:48:18.141Z,6.10
2018-09-20T12:50:46.936Z,7.42
2018-09-20T12:53:15.718Z,5.20
2018-09-20T12:55:44.579Z,5.30
2018-09-20T12:58:13.436Z,4.90
2018-09-20T13:00:42.299Z,5.45
2018-09-20T13:03:11.214Z,4.92
2018-09-20T13:05:40.031Z,4.92
2018-09-20T13:08:08.829Z,5.53
2018-09-20T13:10:37.680Z,6.10
2018-09-20T13:13:07.155Z,5.10
2018-09-20T13:15:36.163Z,5.72
2018-09-20T13:18:05.097Z,5.37
2018-09-20T13:20:33.945Z,5.20
2018-09-20T13:23:02.767Z,5.30
2018-09-20T13:25:32.995Z,6.12
2018-09-20T13:28:01.754Z,5.55
2018-09-20T13:30:30.631Z,5.62
2018-09-20T13:32:59.462Z,5.55
2018-09-20T13:35:28.285Z,5.67
2018-09-20T13:37:57.472Z,6.20
2018-09-20T13:40:26.410Z,6.47
2018-09-20T13:42:55.266Z,5.83
2018-09-20T13:45:24.063Z,5.95
2018-09-20T13:47:53.346Z,5.65
2018-09-20T13:50:22.266Z,4.95
2018-09-20T13:52:51.134Z,4.90
2018-09-20T13:55:20.463Z,5.28
2018-09-20T13:57:49.303Z,5.05
2018-09-20T14:00:18.138Z,6.33
2018-09-20T14:02:47.084Z,5.37
2018-09-20T14:05:16.330Z,5.83
2018-09-20T14:07:45.185Z,6.05
2018-09-20T14:10:14.489Z,5.30
2018-09-20T14:12:43.301Z,4.75
2018-09-20T14:15:12.506Z,5.75
2018-09-20T14:17:41.455Z,5.45
2018-09-20T14:20:10.275Z,5.50
2018-09-20T14:22:39.078Z,6.62
2018-09-20T14:25:09.164Z,6.42
2018-09-20T14:27:37.987Z,5.35
2018-09-20T14:30:08.969Z,5.56
2018-09-20T14:32:38.305Z,6.08
2018-09-20T14:35:08.888Z,5.20
2018-09-20T14:37:37.695Z,6.72
2018-09-20T14:40:08.675Z,5.64
2018-09-20T14:42:37.496Z,5.83
2018-09-20T14:45:08.488Z,6.50
2018-09-20T14:47:37.444Z,6.67
2018-09-20T14:50:06.399Z,5.92
2018-09-20T14:52:35.374Z,6.00
2018-09-20T14:55:04.671Z,5.40
2018-09-20T14:57:33.621Z,5.45
2018-09-20T15:00:02.548Z,4.70
2018-09-20T15:02:31.367Z,4.90
2018-09-20T15:05:00.193Z,5.22
2018-09-20T15:07:29.039Z,4.78
2018-09-20T15:09:57.932Z,5.40
2018-09-20T15:12:26.738Z,5.45
2018-09-20T15:14:55.658Z,5.67
2018-09-20T15:17:25.714Z,5.12
2018-09-20T15:19:54.568Z,5.05
2018-09-20T15:22:23.363Z,5.75
2018-09-20T15:24:52.233Z,5.30
2018-09-20T15:27:21.123Z,5.10
2018-09-20T15:29:50.026Z,5.55
2018-09-20T15:32:18.834Z,5.35
2018-09-20T15:34:47.635Z,5.62
2018-09-20T15:37:16.461Z,4.95
2018-09-20T15:39:45.468Z,4.55
2018-09-20T15:42:14.307Z,4.60
2018-09-20T15:44:43.120Z,5.85
2018-09-20T15:47:12.009Z,5.17
2018-09-20T15:49:40.771Z,5.00
2018-09-20T15:52:09.743Z,5.30
2018-09-20T15:54:38.710Z,4.45
2018-09-20T15:57:07.698Z,5.25
2018-09-20T15:59:36.503Z,4.90
2018-09-20T16:02:05.918Z,4.85
2018-09-20T16:04:34.711Z,5.53
2018-09-20T16:07:03.533Z,5.80
2018-09-20T16:09:32.353Z,5.70
2018-09-20T16:12:01.185Z,5.08
2018-09-20T16:14:30.052Z,5.75
2018-09-20T16:16:58.866Z,6.00
2018-09-20T16:19:28.138Z,5.17
2018-09-20T16:21:57.160Z,4.80
2018-09-20T16:24:26.467Z,5.47
2018-09-20T16:26:55.275Z,4.95
2018-09-20T16:29:34.857Z,5.30
2018-09-20T16:32:21.275Z,5.60
2018-09-20T16:35:37.893Z,5.50
2018-09-20T16:38:27.143Z,6.45
2018-09-20T16:40:59.315Z,4.97
2018-09-20T16:43:28.154Z,4.92
2018-09-20T16:45:56.979Z,5.17
2018-09-20T16:48:25.905Z,6.42
2018-09-20T16:50:54.717Z,5.47
2018-09-20T16:53:24.015Z,5.67
2018-09-20T16:55:52.755Z,5.80
2018-09-20T16:58:21.595Z,6.70
2018-09-20T17:00:50.800Z,5.47
2018-09-20T17:03:20.004Z,7.33
2018-09-20T17:05:48.852Z,6.60
2018-09-20T17:08:17.665Z,6.95
2018-09-20T17:10:46.548Z,6.85
2018-09-20T17:13:15.945Z,7.47
2018-09-20T17:15:44.723Z,7.67
2018-09-20T17:18:13.555Z,7.87
2018-09-20T17:20:42.970Z,7.15
2018-09-20T17:23:11.750Z,7.08
2018-09-20T17:25:40.968Z,6.58
2018-09-20T17:28:09.780Z,7.80
2018-09-20T17:30:38.695Z,10.78
2018-09-20T17:33:07.540Z,9.60
2018-09-20T17:38:15.122Z,9.88
2018-09-20T17:40:45.973Z,10.20
2018-09-20T17:43:18.249Z,9.88
2018-09-20T17:45:47.065Z,11.43
2018-09-20T17:48:15.899Z,11.93
2018-09-20T17:50:44.735Z,13.58
2018-09-20T17:53:13.879Z,11.97
2018-09-20T17:55:43.249Z,14.05
2018-09-20T17:58:12.589Z,15.47
2018-09-20T18:00:41.465Z,14.38
2018-09-20T18:03:10.337Z,16.02
2018-09-20T18:05:39.611Z,15.18
2018-09-20T18:08:08.473Z,15.27
2018-09-20T18:10:37.300Z,16.25
2018-09-20T18:13:06.669Z,16.40
2018-09-20T18:15:35.494Z,16.15
2018-09-20T18:18:04.543Z,14.77
2018-09-20T18:20:33.200Z,16.93
2018-09-20T18:23:02.595Z,15.63
2018-09-20T18:25:31.445Z,21.23
2018-09-20T18:28:00.717Z,15.93
2018-09-20T18:30:29.542Z,16.90
2018-09-20T18:32:58.413Z,17.40
2018-09-20T18:35:27.235Z,18.13
2018-09-20T18:37:56.065Z,15.10
2018-09-20T18:40:24.936Z,18.87
2018-09-20T18:42:53.765Z,17.43
2018-09-20T18:45:22.635Z,17.90
2018-09-20T18:47:51.509Z,17.53
2018-09-20T18:50:20.815Z,16.40
2018-09-20T18:52:49.663Z,17.12
2018-09-20T18:55:18.536Z,18.23
2018-09-20T18:57:47.326Z,17.53
2018-09-20T19:00:16.202Z,18.07
2018-09-20T19:02:45.056Z,17.00
2018-09-20T19:05:13.874Z,18.63
2018-09-20T19:07:42.809Z,19.23
2018-09-20T19:10:11.599Z,18.80
2018-09-20T19:12:40.815Z,16.67
2018-09-20T19:15:10.426Z,19.47
2018-09-20T19:17:39.306Z,22.23
2018-09-20T19:20:09.093Z,22.30
2018-09-20T19:22:37.922Z,22.50
2018-09-20T19:25:09.122Z,20.82
2018-09-20T19:27:38.390Z,22.97
2018-09-20T19:30:09.081Z,22.48
2018-09-20T19:32:37.887Z,23.03
2018-09-20T19:35:08.697Z,22.55
2018-09-20T19:37:37.524Z,21.67
2018-09-20T19:40:07.257Z,22.15
2018-09-20T19:42:36.073Z,21.63
2018-09-20T19:45:04.963Z,22.70
2018-09-20T19:47:33.794Z,22.63
2018-09-20T19:50:02.647Z,22.90
2018-09-20T19:52:31.491Z,24.13
2018-09-20T19:55:00.383Z,31.40
2018-09-20T19:57:29.301Z,25.20
2018-09-20T19:59:58.120Z,19.83
2018-09-20T20:02:33.544Z,23.73
2018-09-20T20:05:02.344Z,25.07
2018-09-20T20:07:31.224Z,24.80
2018-09-20T20:10:00.115Z,20.87
2018-09-20T20:12:28.929Z,24.57
2018-09-20T20:14:57.760Z,27.97
2018-09-20T20:17:26.845Z,33.07
2018-09-20T20:19:55.751Z,31.23
2018-09-20T20:22:24.576Z,28.43
2018-09-20T20:24:53.369Z,31.00
2018-09-20T20:27:22.674Z,27.43
2018-09-20T20:29:51.519Z,25.50
2018-09-20T20:32:20.374Z,23.47
2018-09-20T20:34:49.270Z,24.60
2018-09-20T20:37:18.103Z,24.73
2018-09-20T20:39:47.342Z,24.27
2018-09-20T20:42:16.129Z,23.00
2018-09-20T20:44:44.964Z,23.03
2018-09-20T20:47:13.782Z,23.63
2018-09-20T20:49:42.614Z,27.57
2018-09-20T20:52:11.449Z,22.27
2018-09-20T20:54:40.311Z,21.17
2018-09-20T20:57:09.247Z,23.77
2018-09-20T20:59:38.230Z,22.53
2018-09-20T21:02:07.450Z,23.67
2018-09-20T21:04:36.268Z,24.97
2018-09-20T21:07:05.100Z,19.07
2018-09-20T21:09:33.918Z,21.90
2018-09-20T21:12:02.721Z,26.23
2018-09-20T21:14:31.583Z,22.97
2018-09-20T21:17:00.421Z,21.40
2018-09-20T21:19:29.269Z,22.17
2018-09-20T21:21:58.066Z,22.83
2018-09-20T21:24:27.472Z,22.13
2018-09-20T21:26:56.271Z,23.47
2018-09-20T21:29:25.530Z,22.37
2018-09-20T21:31:54.349Z,21.90
2018-09-20T21:34:23.175Z,21.20
2018-09-20T21:36:51.995Z,21.03
2018-09-20T21:39:20.829Z,21.10
2018-09-20T21:41:49.652Z,20.33
2018-09-20T21:44:18.487Z,17.33
2018-09-20T21:46:47.789Z,19.57
2018-09-20T21:49:16.622Z,20.00
2018-09-20T21:51:45.441Z,20.00
2018-09-20T21:54:14.253Z,16.67
2018-09-20T21:56:43.173Z,20.17
2018-09-20T21:59:11.978Z,20.00
2018-09-20T22:01:46.154Z,18.70
2018-09-20T22:04:15.009Z,18.37
2018-09-20T22:06:43.822Z,17.87
2018-09-20T22:09:13.508Z,15.53
2018-09-20T22:11:42.349Z,15.80
2018-09-20T22:14:11.189Z,15.60
2018-09-20T22:16:40.126Z,15.03
2018-09-20T22:19:08.929Z,15.60
2018-09-20T22:21:37.761Z,15.60
2018-09-20T22:24:06.575Z,14.40
2018-09-20T22:26:35.414Z,15.03
2018-09-20T22:29:04.227Z,13.60
2018-09-20T22:31:33.956Z,13.23
2018-09-20T22:34:02.777Z,13.27
2018-09-20T22:36:31.589Z,13.37
2018-09-20T22:39:00.429Z,13.27
2018-09-20T22:41:29.226Z,13.13
2018-09-20T22:43:58.052Z,12.80
2018-09-20T22:46:26.893Z,12.90
2018-09-20T22:48:55.713Z,12.80
2018-09-20T22:51:24.554Z,12.57
2018-09-20T22:53:53.776Z,13.00
2018-09-20T22:56:22.609Z,12.20
2018-09-20T22:58:51.437Z,13.30
2018-09-20T23:01:20.283Z,12.80
2018-09-20T23:03:49.116Z,13.20
2018-09-20T23:06:17.936Z,12.17
2018-09-20T23:08:46.759Z,12.13
2018-09-20T23:11:15.587Z,12.23
2018-09-20T23:13:44.413Z,11.63
2018-09-20T23:16:13.697Z,13.27
2018-09-20T23:18:42.551Z,12.67
2018-09-20T23:21:11.389Z,12.50
2018-09-20T23:23:40.229Z,12.77
2018-09-20T23:26:09.081Z,9.60
2018-09-20T23:28:37.923Z,12.27
2018-09-20T23:31:06.795Z,13.30
2018-09-20T23:33:36.053Z,11.93
2018-09-20T23:36:04.883Z,11.33
2018-09-20T23:38:34.009Z,11.70
2018-09-20T23:41:02.829Z,11.60
2018-09-20T23:43:31.635Z,13.43
2018-09-20T23:46:00.514Z,9.20
2018-09-20T23:48:29.351Z,10.53
2018-09-20T23:50:58.175Z,10.90
2018-09-20T23:53:26.981Z,11.93
2018-09-20T23:55:55.850Z,8.97
2018-09-20T23:58:24.648Z,11.30
